Time;durP1;ratioP1;P1;durP2;ratioP2;P2;SDS_P1;SDS_P2;PMS_P1;PMS_P2;Temp;Humidity;BMP_temperature;BMP_pressure;BME280_temperature;BME280_humidity;BME280_pressure;Samples;Min_cycle;Max_cycle;Signal;HPM_P1;HPM_P2
2021/05/31 00:02:11;;;;;;;;;;;;;;;28.21;36.32;100579.81;5040766;28;928;-29
2021/05/31 00:04:36;;;;;;;;;;;;;;;28.14;36.23;100565.38;5056805;28;855;-28
2021/05/31 00:07:05;;;;;;;;;;;;;;;28.17;36.23;100567.69;5055982;28;772;-28
2021/05/31 00:09:30;;;;;;;;;;;;;;;28.15;36.22;100575.16;5057445;28;803;-28
2021/05/31 00:11:56;;;;;;;;;;;;;;;28.14;36.50;100573.50;5060067;28;1184;-28
2021/05/31 00:14:21;;;;;;;;;;;;;;;28.19;36.14;100584.56;5059843;28;1128;-28
2021/05/31 00:16:46;;;;;;;;;;;;;;;28.24;36.42;100585.63;5060074;28;2046;-26
2021/05/31 00:19:13;;;;;;;;;;;;;;;28.19;36.08;100585.41;5060017;28;1030;-27
2021/05/31 00:21:39;;;;;;;;;;;;;;;28.29;35.94;100589.66;5059738;28;844;-27
2021/05/31 00:24:04;;;;;;;;;;;;;;;28.23;36.23;100589.38;5060229;28;743;-28
2021/05/31 00:26:29;;;;;;;;;;;;;;;28.24;36.37;100593.75;5060245;28;768;-28
2021/05/31 00:28:55;;;;;;;;;;;;;;;28.33;36.04;100596.34;5059698;28;827;-27
2021/05/31 00:31:20;;;;;;;;;;;;;;;28.29;36.28;100586.94;5059750;28;796;-28
2021/05/31 00:33:45;;;;;;;;;;;;;;;28.34;36.27;100595.34;5059819;28;928;-27
2021/05/31 00:36:10;;;;;;;;;;;;;;;28.30;36.14;100584.03;5060013;28;1961;-28
2021/05/31 00:38:36;;;;;;;;;;;;;;;28.32;36.08;100584.69;5060278;28;803;-26
2021/05/31 00:41:03;;;;;;;;;;;;;;;28.31;36.09;100587.59;5059855;28;828;-28
2021/05/31 00:43:34;;;;;;;;;;;;;;;28.25;36.36;100583.78;5059926;28;798;-27
2021/05/31 00:46:00;;;;;;;;;;;;;;;28.31;36.22;100583.00;5059661;28;767;-29
2021/05/31 00:48:25;;;;;;;;;;;;;;;28.27;36.13;100580.88;5059257;28;928;-27
2021/05/31 00:50:51;;;;;;;;;;;;;;;28.30;36.46;100570.50;5059560;28;1003;-27
2021/05/31 00:53:16;;;;;;;;;;;;;;;28.31;36.22;100580.28;5059530;28;753;-26
2021/05/31 00:55:41;;;;;;;;;;;;;;;28.33;36.09;100569.31;5059620;28;1898;-27
2021/05/31 00:58:07;;;;;;;;;;;;;;;28.27;36.56;100578.19;5059492;28;803;-28
2021/05/31 01:00:32;;;;;;;;;;;;;;;28.23;36.31;100575.88;5073938;28;816;-27
2021/05/31 01:02:57;;;;;;;;;;;;;;;28.25;36.47;100575.66;5059018;28;940;-28
2021/05/31 01:05:23;;;;;;;;;;;;;;;28.22;36.49;100573.34;5059312;28;755;-27
2021/05/31 01:07:49;;;;;;;;;;;;;;;28.24;36.72;100569.41;5059177;28;825;-28
2021/05/31 01:10:33;;;;;;;;;;;;;;;28.19;36.61;100574.59;5059514;28;846;-27
2021/05/31 01:13:00;;;;;;;;;;;;;;;28.24;36.63;100569.41;5058943;28;1248;-28
2021/05/31 01:15:26;;;;;;;;;;;;;;;28.23;36.59;100559.63;5059243;28;1910;-29
2021/05/31 01:18:10;;;;;;;;;;;;;;;28.16;36.84;100572.25;5058954;28;959;-27
2021/05/31 01:20:38;;;;;;;;;;;;;;;28.24;36.42;100566.72;5058469;28;759;-27
2021/05/31 01:23:04;;;;;;;;;;;;;;;28.17;36.95;100565.84;5058562;28;781;-27
2021/05/31 01:25:35;;;;;;;;;;;;;;;28.23;36.63;100562.34;5041161;28;796;-27
2021/05/31 01:28:12;;;;;;;;;;;;;;;28.22;36.64;100560.69;5059142;28;816;-28
2021/05/31 01:30:42;;;;;;;;;;;;;;;28.18;36.90;100567.50;5058772;28;848;-26
2021/05/31 01:33:07;;;;;;;;;;;;;;;28.16;37.00;100564.13;5028237;28;964;-26
2021/05/31 01:35:33;;;;;;;;;;;;;;;28.26;36.56;100557.59;5038547;28;1953;-27
2021/05/31 01:37:58;;;;;;;;;;;;;;;28.27;36.69;100556.53;5038880;28;814;-27
2021/05/31 01:40:23;;;;;;;;;;;;;;;28.28;36.46;100561.75;5038755;28;929;-27
2021/05/31 01:42:50;;;;;;;;;;;;;;;28.18;36.79;100559.38;5020892;28;1073;-27
2021/05/31 01:45:15;;;;;;;;;;;;;;;28.26;36.77;100550.28;5038413;28;860;-26
2021/05/31 01:47:41;;;;;;;;;;;;;;;28.23;36.76;100556.94;5046776;28;1194;-28
2021/05/31 01:50:06;;;;;;;;;;;;;;;28.25;36.54;100545.91;5058566;28;744;-28
2021/05/31 01:52:32;;;;;;;;;;;;;;;28.22;36.68;100543.59;5057958;28;875;-27
2021/05/31 01:54:57;;;;;;;;;;;;;;;28.24;36.72;100541.53;5058842;28;1909;-26
2021/05/31 01:57:23;;;;;;;;;;;;;;;28.21;36.75;100537.34;5042850;28;1212;-27
2021/05/31 01:59:48;;;;;;;;;;;;;;;28.20;36.78;100543.81;5043353;28;1116;-27
2021/05/31 02:02:14;;;;;;;;;;;;;;;28.15;36.91;100527.31;5043408;28;931;-26
2021/05/31 02:04:39;;;;;;;;;;;;;;;28.23;36.83;100540.69;5036887;28;1263;-27
2021/05/31 02:07:04;;;;;;;;;;;;;;;28.25;36.69;100529.69;5038053;28;856;-26
2021/05/31 02:09:30;;;;;;;;;;;;;;;28.24;36.70;100528.84;5038391;28;720;-27
2021/05/31 02:11:55;;;;;;;;;;;;;;;28.18;36.74;100531.50;5038283;28;732;-26
2021/05/31 02:14:37;;;;;;;;;;;;;;;28.16;37.05;100520.88;5054354;28;1003;-27
2021/05/31 02:17:06;;;;;;;;;;;;;;;28.16;36.84;100518.16;5040911;28;980;-27
2021/05/31 02:19:32;;;;;;;;;;;;;;;28.12;36.95;100519.59;5040433;28;977;-28
2021/05/31 02:21:57;;;;;;;;;;;;;;;28.22;36.73;100516.56;5039672;28;806;-27
2021/05/31 02:24:23;;;;;;;;;;;;;;;28.22;36.85;100517.41;5057998;28;812;-26
2021/05/31 02:26:48;;;;;;;;;;;;;;;28.27;36.84;100515.97;5039669;28;845;-28
2021/05/31 02:29:13;;;;;;;;;;;;;;;28.27;36.68;100507.84;5058016;28;789;-27
2021/05/31 02:31:39;;;;;;;;;;;;;;;28.24;37.02;100520.72;5057099;28;947;-27
2021/05/31 02:34:04;;;;;;;;;;;;;;;28.18;37.10;100517.97;5056952;28;960;-26
2021/05/31 02:36:30;;;;;;;;;;;;;;;28.26;36.77;100517.81;5039201;28;1951;-26
2021/05/31 02:38:55;;;;;;;;;;;;;;;28.21;36.82;100520.31;5040037;28;804;-27
2021/05/31 02:41:20;;;;;;;;;;;;;;;28.17;36.81;100517.16;5057684;28;804;-27
2021/05/31 02:43:46;;;;;;;;;;;;;;;28.15;36.96;100521.91;5057359;28;844;-26
2021/05/31 02:46:11;;;;;;;;;;;;;;;28.17;36.98;100516.31;5057271;28;827;-28
2021/05/31 02:48:36;;;;;;;;;;;;;;;28.22;36.75;100521.97;5057113;28;943;-28
2021/05/31 02:51:02;;;;;;;;;;;;;;;28.29;36.59;100522.03;5057103;28;1092;-27
2021/05/31 02:53:29;;;;;;;;;;;;;;;28.24;36.86;100520.72;5057490;28;804;-26
2021/05/31 02:55:55;;;;;;;;;;;;;;;28.15;36.98;100521.06;5056834;28;1980;-27
2021/05/31 02:58:20;;;;;;;;;;;;;;;28.20;37.11;100514.06;5057123;28;744;-27
2021/05/31 03:00:45;;;;;;;;;;;;;;;28.18;37.02;100510.69;5057179;28;796;-26
2021/05/31 03:03:10;;;;;;;;;;;;;;;28.19;37.06;100501.56;5056640;28;951;-26
2021/05/31 03:05:36;;;;;;;;;;;;;;;28.15;36.99;100512.97;5056668;28;789;-27
2021/05/31 03:08:01;;;;;;;;;;;;;;;28.22;37.30;100501.19;5057056;28;822;-27
2021/05/31 03:10:27;;;;;;;;;;;;;;;28.23;36.97;100492.03;5056986;28;808;-29
2021/05/31 03:12:52;;;;;;;;;;;;;;;27.85;36.74;100492.34;5056678;28;1025;-27
2021/05/31 03:15:17;;;;;;;;;;;;;;;27.29;36.61;100496.53;5056880;28;1969;-27
2021/05/31 03:17:46;;;;;;;;;;;;;;;26.99;36.78;100487.44;5055648;28;1023;-27
2021/05/31 03:20:11;;;;;;;;;;;;;;;26.87;37.01;100484.41;5056544;28;737;-30
2021/05/31 03:22:36;;;;;;;;;;;;;;;26.85;37.22;100493.69;5056785;28;846;-30
2021/05/31 03:25:02;;;;;;;;;;;;;;;26.74;36.84;100490.44;5056742;28;771;-27
2021/05/31 03:27:28;;;;;;;;;;;;;;;26.76;36.96;100491.09;5055220;28;838;-30
2021/05/31 03:29:53;;;;;;;;;;;;;;;26.58;36.83;100479.81;5056733;28;760;-27
2021/05/31 03:32:18;;;;;;;;;;;;;;;26.45;37.09;100484.03;5056483;28;948;-30
2021/05/31 03:34:43;;;;;;;;;;;;;;;26.32;37.11;100473.00;5056463;28;1902;-30
2021/05/31 03:37:09;;;;;;;;;;;;;;;26.38;36.88;100477.69;5056879;28;756;-30
2021/05/31 03:39:34;;;;;;;;;;;;;;;26.24;37.50;100476.63;5056383;28;994;-27
2021/05/31 03:41:59;;;;;;;;;;;;;;;26.29;37.34;100475.03;5056495;28;748;-31
2021/05/31 03:44:24;;;;;;;;;;;;;;;26.31;37.40;100484.81;5056264;28;803;-31
2021/05/31 03:46:50;;;;;;;;;;;;;;;26.31;37.67;100474.03;5056375;28;920;-27
2021/05/31 03:49:15;;;;;;;;;;;;;;;26.31;37.43;100474.84;5056258;28;944;-30
2021/05/31 03:51:40;;;;;;;;;;;;;;;26.21;37.71;100475.13;5056308;28;1108;-28
2021/05/31 03:54:06;;;;;;;;;;;;;;;26.36;38.31;100477.88;5056660;28;810;-29
2021/05/31 03:56:31;;;;;;;;;;;;;;;26.63;38.57;100475.56;5055298;28;1898;-27
2021/05/31 03:58:56;;;;;;;;;;;;;;;26.72;38.99;100460.13;5056474;28;800;-30
2021/05/31 04:01:21;;;;;;;;;;;;;;;26.82;38.33;100459.81;5056386;28;761;-29
2021/05/31 04:03:47;;;;;;;;;;;;;;;26.80;38.83;100458.31;5055834;28;952;-29
2021/05/31 04:11:37;;;;;;;;;;;;;;;26.93;38.31;100463.03;5055752;28;626;-28
2021/05/31 04:14:02;;;;;;;;;;;;;;;26.94;38.81;100467.44;5055804;28;1244;-28
2021/05/31 04:16:27;;;;;;;;;;;;;;;27.00;37.96;100470.22;5056696;28;1914;-30
2021/05/31 04:18:52;;;;;;;;;;;;;;;27.14;37.37;100465.81;5055386;28;955;-28
2021/05/31 04:21:18;;;;;;;;;;;;;;;27.12;37.35;100480.56;5056501;28;860;-28
2021/05/31 04:23:43;;;;;;;;;;;;;;;27.17;37.04;100478.13;5056085;28;939;-28
2021/05/31 04:26:08;;;;;;;;;;;;;;;27.14;37.20;100475.81;5055883;28;732;-28
2021/05/31 04:28:34;;;;;;;;;;;;;;;27.17;36.96;100471.88;5056281;28;830;-30
2021/05/31 04:30:59;;;;;;;;;;;;;;;27.14;37.11;100471.22;5056249;28;744;-29
2021/05/31 04:33:24;;;;;;;;;;;;;;;27.20;37.35;100469.66;5054859;28;944;-28
2021/05/31 04:35:49;;;;;;;;;;;;;;;27.13;37.38;100469.56;5054935;28;1910;-28
2021/05/31 04:38:15;;;;;;;;;;;;;;;27.08;36.99;100472.00;5056039;28;742;-29
2021/05/31 04:40:40;;;;;;;;;;;;;;;26.95;35.10;100458.31;5055576;28;834;-29
2021/05/31 04:43:05;;;;;;;;;;;;;;;26.71;33.56;100471.91;5056207;28;744;-29
2021/05/31 04:45:31;;;;;;;;;;;;;;;26.51;33.55;100467.09;5056473;28;744;-29
2021/05/31 04:47:56;;;;;;;;;;;;;;;26.58;34.68;100467.19;5055448;28;1003;-29
2021/05/31 04:50:21;;;;;;;;;;;;;;;26.46;35.47;100464.09;5055442;28;851;-29
2021/05/31 04:52:46;;;;;;;;;;;;;;;26.51;35.70;100487.81;5034540;28;1236;-29
2021/05/31 04:55:16;;;;;;;;;;;;;;;26.46;36.24;100477.59;5036310;28;1906;-29
2021/05/31 04:57:42;;;;;;;;;;;;;;;26.39;36.03;100485.59;5039189;28;836;-29
2021/05/31 05:00:07;;;;;;;;;;;;;;;26.40;36.21;100478.34;5039450;28;879;-29
2021/05/31 05:02:33;;;;;;;;;;;;;;;26.38;35.88;100470.44;5046008;28;915;-28
2021/05/31 05:04:58;;;;;;;;;;;;;;;26.37;36.29;100486.81;5058916;28;772;-29
2021/05/31 05:07:24;;;;;;;;;;;;;;;26.37;36.42;100493.03;5059237;28;768;-28
2021/05/31 05:09:49;;;;;;;;;;;;;;;26.35;36.03;100497.78;5058997;28;815;-29
2021/05/31 05:12:14;;;;;;;;;;;;;;;26.32;36.48;100491.88;5057137;28;2161;-29
2021/05/31 05:14:41;;;;;;;;;;;;;;;26.54;35.95;100509.06;5057243;28;1910;-26
2021/05/31 05:17:06;;;;;;;;;;;;;;;26.49;36.18;100503.38;5058417;28;829;-29
2021/05/31 05:19:32;;;;;;;;;;;;;;;26.55;36.25;100497.22;5057562;28;943;-29
2021/05/31 05:21:57;;;;;;;;;;;;;;;26.58;36.34;100513.03;5058216;28;843;-28
2021/05/31 05:24:22;;;;;;;;;;;;;;;26.64;35.91;100515.00;5058883;28;760;-29
2021/05/31 05:26:50;;;;;;;;;;;;;;;26.70;35.67;100518.81;5058151;28;828;-28
2021/05/31 05:29:15;;;;;;;;;;;;;;;26.63;36.17;100512.47;5058441;28;823;-28
2021/05/31 05:31:41;;;;;;;;;;;;;;;26.70;36.48;100516.13;5040049;28;960;-29
2021/05/31 05:34:06;;;;;;;;;;;;;;;26.67;36.45;100516.50;5058204;28;920;-29
2021/05/31 05:49:54;;;;;;;;;;;;;;;26.76;37.83;100509.13;5057734;28;641;-29
2021/05/31 05:52:19;;;;;;;;;;;;;;;26.73;38.10;100509.50;5058322;28;1211;-30
2021/05/31 05:54:49;;;;;;;;;;;;;;;26.80;37.45;100501.50;5057827;28;1965;-29
2021/05/31 05:57:15;;;;;;;;;;;;;;;26.86;37.87;100514.28;5058054;28;1141;-29
2021/05/31 05:59:40;;;;;;;;;;;;;;;26.97;36.99;100510.25;5039697;28;1303;-29
2021/05/31 06:02:06;;;;;;;;;;;;;;;26.93;37.40;100504.38;5057287;28;966;-28
2021/05/31 06:04:33;;;;;;;;;;;;;;;26.95;37.46;100502.34;5057973;28;823;-30
2021/05/31 06:06:59;;;;;;;;;;;;;;;27.04;36.78;100494.16;5058262;28;768;-30
2021/05/31 06:09:24;;;;;;;;;;;;;;;26.98;37.45;100496.56;5057862;28;840;-28
2021/05/31 06:11:49;;;;;;;;;;;;;;;26.92;37.65;100491.06;5057587;28;808;-29
2021/05/31 06:14:15;;;;;;;;;;;;;;;27.02;37.19;100494.34;5057527;28;1032;-28
2021/05/31 06:16:40;;;;;;;;;;;;;;;27.02;36.97;100487.09;5057843;28;1918;-28
2021/05/31 06:19:05;;;;;;;;;;;;;;;27.01;37.15;100484.53;5057216;28;984;-28
2021/05/31 06:21:30;;;;;;;;;;;;;;;27.04;37.53;100502.25;5057942;28;780;-28
2021/05/31 06:23:56;;;;;;;;;;;;;;;27.06;37.29;100492.13;5057381;28;882;-29
2021/05/31 06:26:21;;;;;;;;;;;;;;;27.09;36.95;100495.25;5056823;28;839;-29
2021/05/31 06:28:46;;;;;;;;;;;;;;;27.12;36.75;100505.72;5057533;28;777;-31
2021/05/31 06:31:12;;;;;;;;;;;;;;;27.18;36.26;100500.53;5057158;28;764;-29
2021/05/31 06:33:37;;;;;;;;;;;;;;;27.14;36.09;100494.72;5056748;28;1073;-29
2021/05/31 06:36:06;;;;;;;;;;;;;;;27.12;36.76;100497.59;5057781;28;1967;-28
2021/05/31 06:38:32;;;;;;;;;;;;;;;27.23;36.17;100506.22;5057504;28;752;-28
2021/05/31 06:40:58;;;;;;;;;;;;;;;27.26;35.73;100500.44;5057361;28;827;-30
2021/05/31 06:43:23;;;;;;;;;;;;;;;27.27;35.73;100494.03;5057166;28;1005;-28
2021/05/31 06:45:48;;;;;;;;;;;;;;;27.23;35.48;100501.66;5057069;28;867;-29
2021/05/31 06:48:14;;;;;;;;;;;;;;;27.30;35.36;100500.91;5056783;28;963;-29
2021/05/31 06:50:39;;;;;;;;;;;;;;;27.29;35.43;100497.38;5057162;28;948;-29
2021/05/31 06:53:04;;;;;;;;;;;;;;;27.28;35.56;100500.28;5056955;28;1204;-31
2021/05/31 06:55:34;;;;;;;;;;;;;;;27.23;36.04;100498.97;5056826;28;1968;-31
2021/05/31 06:58:00;;;;;;;;;;;;;;;27.24;35.87;100497.94;5057306;28;811;-28
2021/05/31 07:00:25;;;;;;;;;;;;;;;27.37;35.71;100497.25;5057074;28;776;-28
2021/05/31 07:02:51;;;;;;;;;;;;;;;27.39;35.74;100491.66;5056521;28;1023;-30
2021/05/31 07:05:16;;;;;;;;;;;;;;;27.36;35.67;100489.34;5056834;28;740;-28
2021/05/31 07:07:41;;;;;;;;;;;;;;;27.32;35.65;100496.16;5056535;28;1010;-27
2021/05/31 07:10:07;;;;;;;;;;;;;;;27.38;35.54;100493.53;5056109;28;945;-29
2021/05/31 07:12:33;;;;;;;;;;;;;;;27.42;35.65;100491.28;5057220;28;1046;-28
2021/05/31 07:15:01;;;;;;;;;;;;;;;27.51;35.03;100497.38;5056573;28;1905;-28
2021/05/31 07:17:27;;;;;;;;;;;;;;;27.38;35.66;100489.97;5056178;28;1058;-28
2021/05/31 07:19:52;;;;;;;;;;;;;;;27.34;35.46;100488.69;5056108;28;748;-28
2021/05/31 07:22:19;;;;;;;;;;;;;;;27.31;35.89;100492.59;5056681;28;764;-28
2021/05/31 07:24:45;;;;;;;;;;;;;;;27.32;35.74;100488.91;5056130;28;829;-29
2021/05/31 07:27:10;;;;;;;;;;;;;;;27.32;36.13;100490.75;5056564;28;732;-29
2021/05/31 07:29:36;;;;;;;;;;;;;;;27.35;35.67;100490.38;5056235;28;989;-29
2021/05/31 07:32:02;;;;;;;;;;;;;;;27.32;36.94;100485.34;5055797;28;987;-28
2021/05/31 07:34:27;;;;;;;;;;;;;;;27.26;36.65;100486.94;5056091;28;816;-28
2021/05/31 07:36:52;;;;;;;;;;;;;;;27.18;36.40;100487.91;5054565;28;1956;-28
2021/05/31 07:39:18;;;;;;;;;;;;;;;27.16;37.24;100491.81;5052618;28;1328;-26
2021/05/31 07:41:44;;;;;;;;;;;;;;;27.20;36.70;100490.41;5055750;28;1198;-27
2021/05/31 07:44:09;;;;;;;;;;;;;;;27.14;36.58;100489.31;5055289;28;784;-28
2021/05/31 07:46:34;;;;;;;;;;;;;;;27.15;37.25;100493.69;5055946;28;817;-27
2021/05/31 07:49:00;;;;;;;;;;;;;;;27.13;36.63;100498.41;5055554;28;959;-29
2021/05/31 07:51:26;;;;;;;;;;;;;;;27.14;36.60;100503.63;5056449;28;1112;-28
2021/05/31 07:53:52;;;;;;;;;;;;;;;27.15;35.99;100501.78;5054929;28;829;-28
2021/05/31 07:56:18;;;;;;;;;;;;;;;27.10;36.28;100507.75;5055618;28;1964;-28
2021/05/31 07:58:43;;;;;;;;;;;;;;;27.11;36.20;100495.09;5055770;28;745;-28
2021/05/31 08:01:09;;;;;;;;;;;;;;;27.16;36.54;100497.22;5055587;28;823;-28
2021/05/31 08:03:34;;;;;;;;;;;;;;;27.22;36.40;100500.00;5055249;28;971;-28
2021/05/31 08:06:00;;;;;;;;;;;;;;;27.28;35.91;100501.09;5056011;28;915;-33
2021/05/31 08:08:25;;;;;;;;;;;;;;;27.33;35.68;100489.72;5055914;28;795;-29
2021/05/31 08:10:50;;;;;;;;;;;;;;;27.38;35.67;100504.31;5056230;28;787;-28
2021/05/31 08:13:16;;;;;;;;;;;;;;;27.35;35.81;100499.31;5055977;28;1177;-28
2021/05/31 08:15:41;;;;;;;;;;;;;;;27.39;35.32;100502.47;5054933;28;1905;-28
2021/05/31 08:18:06;;;;;;;;;;;;;;;27.38;35.42;100504.31;5055391;28;987;-28
2021/05/31 08:20:34;;;;;;;;;;;;;;;27.36;35.32;100503.69;5055696;28;833;-27
2021/05/31 08:23:00;;;;;;;;;;;;;;;27.30;35.67;100500.91;5055483;28;1436;-28
2021/05/31 08:25:25;;;;;;;;;;;;;;;27.23;35.84;100498.13;5055021;28;1175;-29
2021/05/31 08:27:51;;;;;;;;;;;;;;;27.29;36.26;100507.34;5056106;28;882;-28
2021/05/31 08:30:17;;;;;;;;;;;;;;;27.33;36.10;100506.75;5055886;28;823;-28
2021/05/31 08:32:42;;;;;;;;;;;;;;;27.29;36.14;100512.75;5059420;28;927;-28
2021/05/31 08:35:08;;;;;;;;;;;;;;;27.23;36.41;100508.91;5058932;28;1952;-28
2021/05/31 08:37:33;;;;;;;;;;;;;;;27.16;36.36;100514.25;5059791;28;784;-28
2021/05/31 08:39:58;;;;;;;;;;;;;;;27.16;37.12;100511.53;5059505;28;757;-30
2021/05/31 08:42:24;;;;;;;;;;;;;;;26.57;35.79;100511.38;5059505;28;748;-28
2021/05/31 08:44:49;;;;;;;;;;;;;;;25.89;36.32;100510.28;5058927;28;1347;-28
2021/05/31 08:47:14;;;;;;;;;;;;;;;26.37;37.18;100511.06;5040228;28;825;-29
2021/05/31 08:49:40;;;;;;;;;;;;;;;26.62;37.08;100514.38;5041395;28;1526;-30
2021/05/31 08:52:05;;;;;;;;;;;;;;;26.80;37.07;100506.91;5059049;28;1191;-28
2021/05/31 08:54:30;;;;;;;;;;;;;;;26.84;37.30;100503.63;5059128;28;795;-29
2021/05/31 08:56:56;;;;;;;;;;;;;;;26.78;37.19;100499.00;5059041;28;1976;-28
2021/05/31 08:59:21;;;;;;;;;;;;;;;26.90;37.32;100502.06;5041554;28;1029;-27
2021/05/31 09:01:46;;;;;;;;;;;;;;;26.91;37.46;100503.72;5058370;28;939;-28
2021/05/31 09:04:12;;;;;;;;;;;;;;;26.86;37.68;100495.38;5058957;28;1089;-29
2021/05/31 09:06:38;;;;;;;;;;;;;;;26.91;37.50;100492.94;5058799;28;793;-29
2021/05/31 09:09:04;;;;;;;;;;;;;;;26.99;37.47;100500.09;5040909;28;835;-28
2021/05/31 09:11:29;;;;;;;;;;;;;;;27.02;37.66;100497.91;5059111;28;816;-27
2021/05/31 09:13:55;;;;;;;;;;;;;;;27.04;37.30;100495.00;5058792;28;1079;-29
2021/05/31 09:16:20;;;;;;;;;;;;;;;27.04;37.86;100497.72;5058451;28;1941;-28
2021/05/31 09:18:50;;;;;;;;;;;;;;;27.07;37.72;100488.38;5057654;28;896;-28
2021/05/31 09:21:22;;;;;;;;;;;;;;;27.02;37.57;100489.81;5058810;28;982;-28
2021/05/31 09:23:57;;;;;;;;;;;;;;;27.06;37.21;100492.94;5058028;28;1442;-28
2021/05/31 09:26:23;;;;;;;;;;;;;;;26.98;36.84;100493.84;5058813;28;831;-28
2021/05/31 09:29:01;;;;;;;;;;;;;;;26.93;39.10;100490.88;5058298;28;755;-28
2021/05/31 09:31:27;;;;;;;;;;;;;;;26.91;41.39;100484.84;5058666;28;768;-28
2021/05/31 09:34:16;;;;;;;;;;;;;;;26.79;41.22;100489.91;5058400;28;1023;-28
2021/05/31 09:36:47;;;;;;;;;;;;;;;26.82;42.90;100485.97;5041628;28;1906;-28
2021/05/31 09:39:12;;;;;;;;;;;;;;;26.83;42.17;100490.34;5021598;28;9597;-28
2021/05/31 09:41:38;;;;;;;;;;;;;;;26.92;42.55;100491.06;5015873;28;9394;-28
2021/05/31 09:44:04;;;;;;;;;;;;;;;26.85;41.04;100483.75;5018460;28;8522;-28
2021/05/31 09:46:33;;;;;;;;;;;;;;;26.89;40.61;100474.22;5019174;28;8626;-28
2021/05/31 09:48:58;;;;;;;;;;;;;;;26.94;40.23;100479.09;5021541;28;8558;-28
2021/05/31 09:51:23;;;;;;;;;;;;;;;26.97;39.97;100483.25;5014965;28;8562;-28
2021/05/31 09:53:50;;;;;;;;;;;;;;;26.96;40.39;100492.38;5022376;28;8698;-28
2021/05/31 09:56:16;;;;;;;;;;;;;;;26.93;39.83;100481.94;5016356;28;9497;-28
2021/05/31 09:58:55;;;;;;;;;;;;;;;26.20;37.08;100486.09;5013379;28;8674;-29
2021/05/31 10:01:33;;;;;;;;;;;;;;;25.49;37.44;100487.97;5011774;28;8652;-28
2021/05/31 10:06:49;;;;;;;;;;;;;;;24.54;38.83;100486.03;5022892;28;8729;-28
2021/05/31 10:09:17;;;;;;;;;;;;;;;24.99;38.17;100485.56;5010463;28;9581;-29
2021/05/31 10:11:45;;;;;;;;;;;;;;;25.27;37.52;100474.31;5009614;28;8409;-29
2021/05/31 10:14:10;;;;;;;;;;;;;;;25.54;37.16;100481.03;5015877;28;8883;-29
2021/05/31 10:16:35;;;;;;;;;;;;;;;24.76;37.16;100346.38;5033455;28;8779;-29
2021/05/31 10:19:01;;;;;;;;;;;;;;;25.78;37.25;100495.38;5032673;28;8726;-29
2021/05/31 10:21:27;;;;;;;;;;;;;;;25.81;37.66;100494.16;5033580;28;8666;-30
2021/05/31 10:23:53;;;;;;;;;;;;;;;25.76;37.47;100492.00;5034189;28;8894;-31
2021/05/31 10:26:20;;;;;;;;;;;;;;;25.73;37.30;100495.06;5032056;28;9437;-29
2021/05/31 10:28:46;;;;;;;;;;;;;;;25.87;37.43;100496.16;5031908;28;8748;-29
2021/05/31 10:31:11;;;;;;;;;;;;;;;25.76;37.22;100491.16;5031140;28;8524;-31
2021/05/31 10:33:40;;;;;;;;;;;;;;;25.74;37.39;100490.53;5032706;28;8450;-30
2021/05/31 10:36:12;;;;;;;;;;;;;;;25.61;37.17;100493.81;5033537;28;8686;-29
2021/05/31 10:38:37;;;;;;;;;;;;;;;25.56;37.31;100491.63;5033692;28;8699;-30
2021/05/31 10:41:09;;;;;;;;;;;;;;;25.45;37.81;100487.50;5034944;28;9434;-30
2021/05/31 10:43:40;;;;;;;;;;;;;;;25.47;37.65;100490.84;5032684;28;8525;-31
2021/05/31 10:46:06;;;;;;;;;;;;;;;25.48;37.81;100491.66;5033358;28;8646;-29
2021/05/31 10:48:40;;;;;;;;;;;;;;;25.49;38.11;100491.50;5027267;28;8543;-30
2021/05/31 10:51:11;;;;;;;;;;;;;;;25.48;37.88;100487.13;5031705;28;8736;-30
2021/05/31 10:53:37;;;;;;;;;;;;;;;25.34;38.02;100485.22;5032800;28;8793;-28
2021/05/31 10:56:10;;;;;;;;;;;;;;;25.25;38.02;100482.56;5032493;28;9469;-31
2021/05/31 10:58:36;;;;;;;;;;;;;;;25.41;38.01;100486.16;5032522;28;8536;-28
2021/05/31 11:01:08;;;;;;;;;;;;;;;25.37;38.04;100482.16;5033731;28;8634;-30
2021/05/31 11:03:50;;;;;;;;;;;;;;;25.44;37.94;100477.75;5032279;28;8595;-30
2021/05/31 11:06:24;;;;;;;;;;;;;;;25.35;38.09;100466.19;5028692;28;8765;-29
2021/05/31 11:08:57;;;;;;;;;;;;;;;25.42;37.87;100456.34;5033039;28;8642;-30
2021/05/31 11:11:29;;;;;;;;;;;;;;;25.38;38.14;100465.81;5032570;28;9649;-29
2021/05/31 11:13:55;;;;;;;;;;;;;;;25.28;38.34;100457.97;5021730;28;8646;-30
2021/05/31 11:16:20;;;;;;;;;;;;;;;25.36;38.25;100458.94;5012054;28;8590;-31
2021/05/31 11:18:46;;;;;;;;;;;;;;;25.28;38.34;100465.22;5016816;28;8537;-31
2021/05/31 11:21:22;;;;;;;;;;;;;;;25.34;38.28;100453.72;5014242;28;8593;-29
2021/05/31 11:23:54;;;;;;;;;;;;;;;25.39;38.51;100464.78;5018070;28;8651;-29
2021/05/31 11:26:19;;;;;;;;;;;;;;;25.29;38.61;100461.53;5022845;28;9427;-29
2021/05/31 11:28:44;;;;;;;;;;;;;;;25.49;38.43;100461.06;5002926;28;8724;-29
2021/05/31 11:31:10;;;;;;;;;;;;;;;25.42;38.52;100450.97;5018272;28;8558;-29
2021/05/31 11:33:35;;;;;;;;;;;;;;;25.38;38.34;100459.59;5016769;28;8518;-29
2021/05/31 11:36:00;;;;;;;;;;;;;;;25.71;39.20;100451.31;5003615;28;8615;-28
2021/05/31 11:38:26;;;;;;;;;;;;;;;26.01;39.86;100445.16;5025599;28;8601;-26
2021/05/31 11:40:51;;;;;;;;;;;;;;;26.40;39.89;100451.38;5027219;28;9479;-29
2021/05/31 11:43:16;;;;;;;;;;;;;;;26.64;39.61;100454.81;5036076;28;761;-28
2021/05/31 11:45:43;;;;;;;;;;;;;;;26.70;39.50;100445.13;5031738;28;1069;-28
2021/05/31 11:48:15;;;;;;;;;;;;;;;26.84;39.43;100443.44;5002246;28;920;-28
2021/05/31 11:50:41;;;;;;;;;;;;;;;26.77;39.47;100446.91;4982213;28;897;-29
2021/05/31 11:53:07;;;;;;;;;;;;;;;26.71;39.62;100439.53;5032932;28;1263;-29
2021/05/31 11:55:32;;;;;;;;;;;;;;;26.72;39.93;100438.53;5036005;28;1982;-28
2021/05/31 11:57:57;;;;;;;;;;;;;;;26.81;39.53;100438.44;5033186;28;1835;-28
2021/05/31 12:00:24;;;;;;;;;;;;;;;26.81;39.65;100439.25;5018127;28;944;-28
2021/05/31 12:02:49;;;;;;;;;;;;;;;26.83;39.20;100445.31;5005783;28;929;-28
2021/05/31 12:05:15;;;;;;;;;;;;;;;26.96;39.46;100446.50;4998796;28;753;-27
2021/05/31 12:07:43;;;;;;;;;;;;;;;26.89;39.50;100438.31;4982551;28;1173;-27
2021/05/31 12:10:09;;;;;;;;;;;;;;;26.88;39.67;100445.56;5000805;28;828;-27
2021/05/31 12:12:34;;;;;;;;;;;;;;;26.87;39.85;100443.06;5000274;28;1053;-28
2021/05/31 12:15:00;;;;;;;;;;;;;;;26.84;39.64;100448.84;5000540;28;1969;-28
2021/05/31 12:17:26;;;;;;;;;;;;;;;26.88;39.49;100450.97;4999954;28;1039;-27
2021/05/31 12:19:51;;;;;;;;;;;;;;;26.94;39.63;100448.53;4999592;28;836;-27
2021/05/31 12:22:17;;;;;;;;;;;;;;;26.99;39.48;100451.53;5000718;28;732;-27
2021/05/31 12:24:43;;;;;;;;;;;;;;;26.97;39.75;100446.31;5000501;28;744;-27
2021/05/31 12:27:08;;;;;;;;;;;;;;;27.17;39.01;100452.97;5000234;28;743;-27
2021/05/31 12:29:34;;;;;;;;;;;;;;;27.12;39.34;100449.00;4999695;28;889;-27
2021/05/31 12:32:01;;;;;;;;;;;;;;;27.12;39.37;100448.16;5004761;28;1204;-27
2021/05/31 12:34:26;;;;;;;;;;;;;;;27.25;39.17;100442.91;5019606;28;1155;-27
2021/05/31 12:36:54;;;;;;;;;;;;;;;27.22;38.98;100440.59;5019566;28;1906;-28
2021/05/31 12:39:20;;;;;;;;;;;;;;;27.23;39.23;100444.09;5001430;28;1244;-27
2021/05/31 12:41:45;;;;;;;;;;;;;;;27.24;39.09;100427.72;5002085;28;828;-27
2021/05/31 12:44:11;;;;;;;;;;;;;;;27.32;39.23;100434.88;5019380;28;950;-27
2021/05/31 12:46:37;;;;;;;;;;;;;;;26.37;38.93;100303.44;5019644;28;858;-27
2021/05/31 12:49:03;;;;;;;;;;;;;;;27.21;39.25;100432.69;5001529;28;1000;-28
2021/05/31 12:51:28;;;;;;;;;;;;;;;27.18;39.07;100425.78;5022126;28;908;-27
2021/05/31 12:53:58;;;;;;;;;;;;;;;27.30;39.08;100427.97;5039551;28;756;-27
2021/05/31 12:56:27;;;;;;;;;;;;;;;27.28;39.24;100427.34;5028185;28;1897;-28
2021/05/31 12:59:00;;;;;;;;;;;;;;;27.24;39.39;100429.59;5004366;28;763;-27
2021/05/31 13:01:26;;;;;;;;;;;;;;;27.25;38.79;100421.31;5005635;28;800;-28
2021/05/31 13:03:54;;;;;;;;;;;;;;;27.14;39.47;100417.22;5000933;28;992;-28
2021/05/31 13:06:29;;;;;;;;;;;;;;;27.14;39.21;100414.53;5000152;28;772;-28
2021/05/31 13:08:56;;;;;;;;;;;;;;;27.10;39.18;100410.56;4999648;28;829;-28
2021/05/31 13:11:21;;;;;;;;;;;;;;;27.10;39.58;100415.09;4999483;28;868;-27